Time;durP1;ratioP1;P1;durP2;ratioP2;P2;SDS_P1;SDS_P2;PMS_P1;PMS_P2;Temp;Humidity;BMP_temperature;BMP_pressure;BME280_temperature;BME280_humidity;BME280_pressure;Samples;Min_cycle;Max_cycle;Signal;HPM_P1;HPM_P2
2023/01/15 00:00:21;;;;;;;5.10;1.00;;;8.60;99.90;;;;;;5082408;28;20479;-39
2023/01/15 00:02:47;;;;;;;6.60;1.30;;;8.60;99.90;;;;;;5082822;28;20020;-37
2023/01/15 00:05:12;;;;;;;8.18;0.95;;;8.50;99.90;;;;;;5081788;28;20020;-37
2023/01/15 00:07:38;;;;;;;5.43;1.20;;;8.60;99.90;;;;;;5083517;28;20045;-35
2023/01/15 00:10:04;;;;;;;4.53;0.90;;;8.60;99.90;;;;;;5082357;28;20135;-38
2023/01/15 00:12:29;;;;;;;6.60;1.00;;;8.60;99.90;;;;;;5082248;28;20124;-38
2023/01/15 00:14:56;;;;;;;3.88;0.90;;;8.60;99.90;;;;;;5083163;28;20077;-38
2023/01/15 00:17:22;;;;;;;5.20;1.15;;;8.60;99.90;;;;;;5083046;28;20031;-38
2023/01/15 00:19:48;;;;;;;5.60;1.30;;;8.60;99.90;;;;;;5082431;28;20506;-38
2023/01/15 00:22:13;;;;;;;7.32;1.17;;;8.60;99.90;;;;;;5082885;28;20065;-36
2023/01/15 00:27:38;;;;;;;5.30;1.35;;;8.60;99.90;;;;;;5081972;28;20164;-37
2023/01/15 00:30:06;;;;;;;3.53;1.10;;;8.60;99.90;;;;;;5080344;28;20047;-36
2023/01/15 00:32:31;;;;;;;6.22;1.50;;;8.60;99.90;;;;;;5082315;28;20117;-35
2023/01/15 00:34:58;;;;;;;4.35;1.20;;;8.60;99.90;;;;;;5081754;28;20745;-36
2023/01/15 00:37:23;;;;;;;5.05;1.20;;;8.60;99.90;;;;;;5082708;28;20063;-36
2023/01/15 00:39:49;;;;;;;4.63;1.23;;;8.60;99.90;;;;;;5083301;28;20108;-38
2023/01/15 00:42:16;;;;;;;3.90;1.25;;;8.50;99.90;;;;;;5081833;28;20123;-39
2023/01/15 00:44:42;;;;;;;8.25;1.70;;;8.50;99.90;;;;;;5082739;28;20051;-36
2023/01/15 00:47:13;;;;;;;7.60;1.50;;;8.50;99.90;;;;;;5081196;28;20577;-38
2023/01/15 00:49:38;;;;;;;6.03;1.33;;;8.50;99.90;;;;;;5082508;28;20035;-38
2023/01/15 00:52:04;;;;;;;3.10;0.98;;;8.50;99.90;;;;;;5082177;28;20032;-38
2023/01/15 00:54:32;;;;;;;5.18;1.13;;;8.50;99.90;;;;;;5081620;28;20031;-37
2023/01/15 00:56:57;;;;;;;5.63;1.30;;;8.50;99.90;;;;;;5082362;28;20640;-37
2023/01/15 00:59:23;;;;;;;6.40;1.50;;;8.50;99.90;;;;;;5082576;28;20095;-39
2023/01/15 01:01:49;;;;;;;6.63;1.40;;;8.50;99.90;;;;;;5082089;28;20089;-33
2023/01/15 01:04:14;;;;;;;6.90;1.70;;;8.50;99.90;;;;;;5081984;28;20020;-39
2023/01/15 01:06:40;;;;;;;5.68;1.27;;;8.50;99.90;;;;;;5082650;28;20023;-37
2023/01/15 01:09:05;;;;;;;7.28;1.55;;;8.40;99.90;;;;;;5081312;28;20032;-38
2023/01/15 01:11:33;;;;;;;9.25;1.85;;;8.40;99.90;;;;;;5082297;28;20097;-36
2023/01/15 01:14:02;;;;;;;5.53;1.83;;;8.40;99.90;;;;;;5082517;28;20043;-37
2023/01/15 01:16:32;;;;;;;6.30;1.65;;;8.40;99.90;;;;;;5078214;28;20027;-37
2023/01/15 01:18:59;;;;;;;7.60;1.83;;;8.40;99.90;;;;;;5082215;28;20031;-37
2023/01/15 01:21:26;;;;;;;7.90;1.98;;;8.40;99.90;;;;;;5082097;28;20192;-37
2023/01/15 01:23:51;;;;;;;6.82;1.30;;;8.40;99.90;;;;;;5081604;28;20016;-39
2023/01/15 01:26:17;;;;;;;11.73;2.05;;;8.40;99.90;;;;;;5081136;28;20140;-38
2023/01/15 01:28:46;;;;;;;6.50;1.00;;;8.40;99.90;;;;;;5082886;28;20396;-37
2023/01/15 01:31:12;;;;;;;5.97;1.70;;;8.40;99.90;;;;;;5082791;28;20081;-36
2023/01/15 01:33:37;;;;;;;8.55;1.48;;;8.40;99.90;;;;;;5086063;28;20048;-39
2023/01/15 01:36:03;;;;;;;7.68;1.73;;;8.40;99.90;;;;;;5085415;28;20024;-39
2023/01/15 01:38:29;;;;;;;6.25;1.60;;;8.40;99.90;;;;;;5085333;28;20027;-38
2023/01/15 01:40:55;;;;;;;7.28;1.40;;;8.30;99.90;;;;;;5085647;28;20247;-38
2023/01/15 01:43:27;;;;;;;6.25;1.45;;;8.30;99.90;;;;;;5085491;28;20024;-37
2023/01/15 01:45:53;;;;;;;7.95;1.52;;;8.30;99.90;;;;;;5086057;28;20117;-36
2023/01/15 01:48:23;;;;;;;7.70;1.30;;;8.30;99.90;;;;;;5085284;28;20683;-34
2023/01/15 01:50:50;;;;;;;10.23;1.58;;;8.30;99.90;;;;;;5085955;28;20008;-37
2023/01/15 01:53:20;;;;;;;7.40;1.70;;;8.30;99.90;;;;;;5085064;28;20057;-37
2023/01/15 01:55:47;;;;;;;9.85;1.45;;;8.30;99.90;;;;;;5085449;28;20484;-38
2023/01/15 01:58:14;;;;;;;4.88;1.10;;;8.20;99.90;;;;;;5084360;28;20748;-38
2023/01/15 02:00:43;;;;;;;7.30;1.92;;;8.30;99.90;;;;;;5085651;28;20028;-35
2023/01/15 02:03:09;;;;;;;10.10;1.75;;;8.20;99.90;;;;;;5084862;28;20051;-35
2023/01/15 02:05:39;;;;;;;9.15;1.70;;;8.20;99.90;;;;;;5085529;28;20480;-37
2023/01/15 02:08:09;;;;;;;8.70;1.42;;;8.20;99.90;;;;;;5084887;28;20043;-38
2023/01/15 02:10:34;;;;;;;5.85;1.38;;;8.20;99.90;;;;;;5085866;28;20490;-38
2023/01/15 02:13:37;;;;;;;8.13;1.38;;;8.20;99.90;;;;;;5083587;28;20028;-38
2023/01/15 02:16:07;;;;;;;6.75;1.40;;;8.10;99.90;;;;;;5085671;28;20105;-38
2023/01/15 02:18:46;;;;;;;8.88;2.03;;;8.10;99.90;;;;;;5081629;28;20031;-38
2023/01/15 02:21:29;;;;;;;5.05;1.15;;;8.10;99.90;;;;;;5084566;28;20623;-37
2023/01/15 02:24:13;;;;;;;8.27;1.60;;;8.10;99.90;;;;;;5084054;28;20028;-38
2023/01/15 02:27:13;;;;;;;10.43;1.45;;;8.10;99.90;;;;;;5084647;28;20026;-39
2023/01/15 02:29:56;;;;;;;6.70;1.40;;;8.10;99.90;;;;;;5077005;28;20124;-38
2023/01/15 02:32:42;;;;;;;3.78;1.40;;;8.00;99.90;;;;;;5084572;28;20035;-39
2023/01/15 02:35:16;;;;;;;10.52;2.05;;;8.10;99.90;;;;;;5084814;28;20028;-38
2023/01/15 02:37:47;;;;;;;8.27;1.45;;;8.00;99.90;;;;;;5084863;28;20067;-38
2023/01/15 02:40:15;;;;;;;7.03;1.30;;;8.00;99.90;;;;;;5084336;28;20028;-36
2023/01/15 02:42:47;;;;;;;4.30;1.25;;;7.90;99.90;;;;;;5084910;28;20063;-33
2023/01/15 02:45:15;;;;;;;7.00;1.45;;;7.90;99.90;;;;;;5085192;28;20034;-38
2023/01/15 02:47:43;;;;;;;6.65;1.45;;;7.90;99.90;;;;;;5085343;28;20032;-38
2023/01/15 02:50:14;;;;;;;5.82;1.63;;;7.80;99.90;;;;;;5084251;28;20066;-38
2023/01/15 02:52:50;;;;;;;3.88;1.17;;;7.80;99.90;;;;;;5084711;28;20059;-35
2023/01/15 02:55:26;;;;;;;5.32;1.65;;;7.80;99.90;;;;;;5073245;28;20033;-38
2023/01/15 02:57:55;;;;;;;6.85;1.40;;;7.80;99.90;;;;;;5084845;28;20368;-36
2023/01/15 03:00:27;;;;;;;6.68;1.73;;;7.70;99.90;;;;;;5072864;28;20028;-37
2023/01/15 03:03:05;;;;;;;7.97;1.70;;;7.70;99.90;;;;;;5084060;28;20116;-39
2023/01/15 03:05:37;;;;;;;7.03;1.52;;;7.80;99.90;;;;;;5073725;28;20032;-38
2023/01/15 03:08:06;;;;;;;10.97;1.53;;;7.70;99.90;;;;;;5083091;28;20034;-37
2023/01/15 03:10:40;;;;;;;7.68;1.55;;;7.70;99.90;;;;;;5084504;28;20056;-38
2023/01/15 03:13:10;;;;;;;7.78;1.75;;;7.80;99.90;;;;;;5082853;28;20451;-38
2023/01/15 03:19:04;;;;;;;4.15;1.42;;;7.70;99.90;;;;;;5084531;28;20406;-37
2023/01/15 03:21:38;;;;;;;10.75;1.55;;;7.70;99.90;;;;;;5042156;28;20048;-38
2023/01/15 03:24:05;;;;;;;6.63;1.42;;;7.70;99.90;;;;;;5083006;28;20073;-35
2023/01/15 03:26:30;;;;;;;8.07;1.40;;;7.70;99.90;;;;;;5083830;28;20027;-39
2023/01/15 03:28:56;;;;;;;5.97;1.60;;;7.70;99.90;;;;;;5083790;28;20028;-35
2023/01/15 03:31:22;;;;;;;4.47;1.45;;;7.60;99.90;;;;;;5084073;28;20020;-37
2023/01/15 03:33:47;;;;;;;7.63;1.85;;;7.70;99.90;;;;;;5084010;28;20699;-39
2023/01/15 03:36:13;;;;;;;5.90;1.25;;;7.60;99.90;;;;;;5082971;28;20028;-38
2023/01/15 03:38:40;;;;;;;8.60;1.50;;;7.60;99.90;;;;;;5083934;28;20043;-38
2023/01/15 03:41:13;;;;;;;7.05;1.63;;;7.60;99.90;;;;;;5082978;28;20059;-37
2023/01/15 03:44:03;;;;;;;6.10;1.10;;;7.60;99.90;;;;;;5083803;28;20032;-38
2023/01/15 03:47:07;;;;;;;11.25;2.00;;;7.60;99.90;;;;;;5080166;28;20032;-35
2023/01/15 03:49:51;;;;;;;6.00;1.40;;;7.60;99.90;;;;;;5083378;28;20024;-37
2023/01/15 03:52:46;;;;;;;8.52;1.35;;;7.60;99.90;;;;;;5072756;28;20051;-38
2023/01/15 03:55:24;;;;;;;4.65;1.38;;;7.60;99.90;;;;;;5082840;28;20035;-35
2023/01/15 03:58:06;;;;;;;5.57;1.30;;;7.60;99.90;;;;;;5082903;28;20909;-37
2023/01/15 04:00:37;;;;;;;8.07;1.67;;;7.50;99.90;;;;;;5083155;28;20068;-36
2023/01/15 04:03:07;;;;;;;6.18;1.38;;;7.50;99.90;;;;;;5082803;28;21208;-38
2023/01/15 04:05:35;;;;;;;7.82;1.20;;;7.50;99.90;;;;;;5083322;28;20034;-36
2023/01/15 04:08:02;;;;;;;5.50;1.40;;;7.50;99.90;;;;;;5082837;28;20032;-37
2023/01/15 04:10:27;;;;;;;3.85;1.30;;;7.50;99.90;;;;;;5083168;28;20032;-37
2023/01/15 04:12:55;;;;;;;7.15;1.40;;;7.50;99.90;;;;;;5083173;28;20118;-37
2023/01/15 04:15:21;;;;;;;8.40;2.58;;;7.60;99.90;;;;;;5082458;28;20030;-39
2023/01/15 04:17:46;;;;;;;4.85;1.17;;;7.50;99.90;;;;;;5083045;28;20036;-37
2023/01/15 04:20:15;;;;;;;3.63;1.10;;;7.50;99.90;;;;;;5082132;28;20232;-36
2023/01/15 04:22:40;;;;;;;6.78;1.35;;;7.50;99.90;;;;;;5079568;28;20028;-37
2023/01/15 04:25:07;;;;;;;5.32;1.45;;;7.50;99.90;;;;;;5082558;28;20020;-38
2023/01/15 04:27:32;;;;;;;9.45;1.63;;;7.40;99.90;;;;;;5081919;28;20187;-38
2023/01/15 04:29:58;;;;;;;5.72;1.20;;;7.40;99.90;;;;;;5082967;28;20820;-38
2023/01/15 04:32:24;;;;;;;4.70;1.30;;;7.40;99.90;;;;;;5081585;28;20681;-38
2023/01/15 04:34:49;;;;;;;8.93;1.35;;;7.40;99.90;;;;;;5083086;28;20020;-37
2023/01/15 04:37:16;;;;;;;7.07;1.80;;;7.40;99.90;;;;;;5082238;28;20028;-38
2023/01/15 04:39:42;;;;;;;8.88;1.33;;;7.40;99.90;;;;;;5082161;28;20028;-38
2023/01/15 04:44:56;;;;;;;5.55;1.40;;;7.40;99.90;;;;;;5082821;28;20070;-38
2023/01/15 04:47:21;;;;;;;9.43;1.65;;;7.40;99.90;;;;;;5081217;28;20123;-38
2023/01/15 04:49:47;;;;;;;9.45;1.52;;;7.40;99.90;;;;;;5083271;28;20032;-37
2023/01/15 04:52:14;;;;;;;8.40;1.63;;;7.40;99.90;;;;;;5081832;28;20452;-38
2023/01/15 04:54:39;;;;;;;6.80;1.60;;;7.30;99.90;;;;;;5082021;28;20036;-42
2023/01/15 04:57:05;;;;;;;9.43;2.70;;;7.30;99.90;;;;;;5082460;28;20031;-38
2023/01/15 04:59:30;;;;;;;7.70;1.75;;;7.30;99.90;;;;;;5082528;28;20061;-35
2023/01/15 05:01:56;;;;;;;12.68;1.73;;;7.30;99.90;;;;;;5081631;28;20624;-37
2023/01/15 05:04:21;;;;;;;10.13;1.65;;;7.20;99.90;;;;;;5082494;28;20059;-34
2023/01/15 05:06:47;;;;;;;7.72;1.52;;;7.20;99.90;;;;;;5082194;28;20034;-33
2023/01/15 05:09:13;;;;;;;5.47;1.48;;;7.30;99.90;;;;;;5081181;28;20073;-36
2023/01/15 05:11:39;;;;;;;11.63;2.20;;;7.30;99.90;;;;;;5082916;28;20031;-36
2023/01/15 05:14:05;;;;;;;8.77;2.08;;;7.30;99.90;;;;;;5081265;28;20759;-36
2023/01/15 05:16:32;;;;;;;8.68;1.73;;;7.30;99.90;;;;;;5081509;28;20020;-38
2023/01/15 05:19:01;;;;;;;7.25;1.52;;;7.30;99.90;;;;;;5081244;28;20751;-39
2023/01/15 05:21:30;;;;;;;8.38;1.67;;;7.30;99.90;;;;;;5081771;28;20069;-38
2023/01/15 05:23:56;;;;;;;7.75;1.38;;;7.30;99.90;;;;;;5082016;28;20706;-36
2023/01/15 05:26:23;;;;;;;5.63;1.50;;;7.30;99.90;;;;;;5081759;28;20091;-37
2023/01/15 05:28:51;;;;;;;8.27;1.88;;;7.30;99.90;;;;;;5080978;28;20032;-39
2023/01/15 05:31:18;;;;;;;6.78;1.52;;;7.30;99.90;;;;;;5081892;28;20085;-36
2023/01/15 05:33:46;;;;;;;8.07;1.65;;;7.30;99.90;;;;;;5081596;28;20047;-36
2023/01/15 05:36:14;;;;;;;7.07;1.50;;;7.20;99.90;;;;;;5080688;28;20028;-38
2023/01/15 05:38:40;;;;;;;6.30;1.58;;;7.20;99.90;;;;;;5081762;28;20031;-38
2023/01/15 05:41:47;;;;;;;4.82;1.73;;;7.10;99.90;;;;;;5081259;28;20048;-35
2023/01/15 05:43:54;;;;;;;8.48;1.70;;;7.10;99.90;;;;;;5081211;28;20070;-37
2023/01/15 05:46:20;;;;;;;7.55;1.60;;;7.10;99.90;;;;;;5081193;28;21015;-36
2023/01/15 05:48:45;;;;;;;6.43;1.58;;;7.20;99.90;;;;;;5082368;28;20107;-38
2023/01/15 05:51:11;;;;;;;8.90;1.73;;;7.20;99.90;;;;;;5080732;28;20032;-39
2023/01/15 05:53:40;;;;;;;6.03;1.23;;;7.10;99.90;;;;;;5081581;28;20044;-38
2023/01/15 05:56:06;;;;;;;6.32;1.30;;;7.10;99.90;;;;;;5082051;28;20020;-38
2023/01/15 05:58:32;;;;;;;9.25;1.60;;;7.10;99.90;;;;;;5081628;28;20024;-38
2023/01/15 06:00:58;;;;;;;10.13;1.60;;;7.10;99.90;;;;;;5082053;28;20129;-39
2023/01/15 06:03:25;;;;;;;7.40;1.67;;;7.10;99.90;;;;;;5082286;28;20016;-39
2023/01/15 06:05:51;;;;;;;6.25;1.58;;;7.10;99.90;;;;;;5081525;28;20036;-34
2023/01/15 06:08:17;;;;;;;5.80;1.45;;;7.10;99.90;;;;;;5081565;28;20546;-36
2023/01/15 06:10:46;;;;;;;6.38;1.48;;;7.00;99.90;;;;;;5080665;28;20036;-36
2023/01/15 06:13:12;;;;;;;5.85;1.60;;;7.10;99.90;;;;;;5081935;28;20036;-38
2023/01/15 06:15:38;;;;;;;7.57;1.88;;;7.10;99.90;;;;;;5081865;28;20032;-38
2023/01/15 06:18:04;;;;;;;9.80;1.60;;;7.10;99.90;;;;;;5083441;28;20024;-38
2023/01/15 06:20:30;;;;;;;6.35;1.63;;;7.10;99.90;;;;;;5085827;28;20020;-39
2023/01/15 06:22:55;;;;;;;4.97;1.30;;;7.00;99.90;;;;;;5085745;28;20443;-36
2023/01/15 06:25:21;;;;;;;8.73;1.50;;;7.00;99.90;;;;;;5084299;28;20020;-39
2023/01/15 06:27:48;;;;;;;7.15;1.50;;;7.00;99.90;;;;;;5085382;28;20047;-38
2023/01/15 06:30:14;;;;;;;7.70;1.50;;;7.00;99.90;;;;;;5084260;28;20019;-39
2023/01/15 06:32:40;;;;;;;8.60;1.60;;;6.90;99.90;;;;;;5084882;28;20052;-35
2023/01/15 06:35:06;;;;;;;6.10;1.25;;;6.90;99.90;;;;;;5084939;28;20365;-37
2023/01/15 06:37:34;;;;;;;7.03;1.25;;;6.80;99.90;;;;;;5084794;28;20039;-40
2023/01/15 06:40:00;;;;;;;8.07;1.80;;;6.80;99.90;;;;;;5083873;28;20491;-36
2023/01/15 06:47:56;;;;;;;6.32;1.50;;;6.80;99.90;;;;;;5084387;28;20059;-38
2023/01/15 06:50:22;;;;;;;5.60;1.15;;;6.80;99.90;;;;;;5084318;28;20780;-39
2023/01/15 06:52:48;;;;;;;6.32;1.55;;;6.80;99.90;;;;;;5085272;28;20032;-39
2023/01/15 06:55:13;;;;;;;8.35;1.70;;;6.80;99.90;;;;;;5083559;28;20040;-35
2023/01/15 06:57:40;;;;;;;7.50;1.20;;;6.90;99.90;;;;;;5084669;28;20044;-38
2023/01/15 07:00:07;;;;;;;7.88;1.70;;;7.00;99.90;;;;;;5084118;28;20032;-34
2023/01/15 07:02:33;;;;;;;8.80;1.42;;;7.00;99.90;;;;;;5084018;28;20127;-38
2023/01/15 07:04:58;;;;;;;5.57;1.10;;;7.00;99.90;;;;;;5084389;28;20580;-38
2023/01/15 07:07:26;;;;;;;5.68;1.20;;;7.10;99.90;;;;;;5083634;28;20028;-35
2023/01/15 07:09:52;;;;;;;7.32;1.27;;;7.10;99.90;;;;;;5084454;28;20027;-37
2023/01/15 07:12:17;;;;;;;6.75;1.60;;;7.10;99.90;;;;;;5083697;28;20028;-36
2023/01/15 07:14:43;;;;;;;5.18;1.30;;;7.00;99.90;;;;;;5083464;28;20024;-35
2023/01/15 07:17:12;;;;;;;6.15;1.42;;;6.90;99.90;;;;;;5083614;28;20177;-37
2023/01/15 07:19:38;;;;;;;7.65;1.60;;;6.80;99.90;;;;;;5083935;28;20467;-40
2023/01/15 07:22:05;;;;;;;6.25;1.15;;;6.70;99.90;;;;;;5082795;28;20498;-36
2023/01/15 07:24:30;;;;;;;6.40;1.17;;;6.70;99.90;;;;;;5084168;28;20032;-35
2023/01/15 07:26:56;;;;;;;4.75;1.10;;;6.70;99.90;;;;;;5084077;28;20122;-38
2023/01/15 07:29:22;;;;;;;4.72;1.30;;;6.70;99.90;;;;;;5071045;28;20028;-36
2023/01/15 07:31:48;;;;;;;5.20;1.10;;;6.60;99.90;;;;;;5083343;28;20077;-37
2023/01/15 07:34:14;;;;;;;6.28;1.63;;;6.60;99.90;;;;;;5083098;28;20093;-36
2023/01/15 07:36:39;;;;;;;7.60;1.40;;;6.50;99.90;;;;;;5083270;28;20699;-38
2023/01/15 07:39:07;;;;;;;9.30;2.10;;;6.50;99.90;;;;;;5083537;28;20114;-35
2023/01/15 07:49:54;;;;;;;10.15;1.83;;;6.40;99.90;;;;;;5081725;28;20043;-37
2023/01/15 07:52:21;;;;;;;8.00;1.67;;;6.40;99.90;;;;;;5082931;28;20445;-34
2023/01/15 07:54:48;;;;;;;7.20;1.40;;;6.30;99.90;;;;;;5084079;28;20016;-34
2023/01/15 07:57:17;;;;;;;9.73;1.58;;;6.30;99.90;;;;;;5082675;28;20028;-35
2023/01/15 07:59:43;;;;;;;7.28;1.70;;;6.40;99.90;;;;;;5082952;28;20482;-38
2023/01/15 08:02:09;;;;;;;6.47;1.40;;;6.30;99.90;;;;;;5083337;28;20036;-38
2023/01/15 08:04:35;;;;;;;9.90;1.50;;;6.30;99.90;;;;;;5082278;28;20020;-34
2023/01/15 08:07:02;;;;;;;6.75;1.40;;;6.30;99.90;;;;;;5082890;28;20465;-37
2023/01/15 08:09:28;;;;;;;5.47;1.27;;;6.30;99.90;;;;;;5083417;28;20835;-33
2023/01/15 08:17:23;;;;;;;5.97;1.30;;;6.30;99.90;;;;;;5062104;28;20093;-38
2023/01/15 08:19:48;;;;;;;6.60;1.40;;;6.30;99.90;;;;;;5077965;28;20414;-36
2023/01/15 08:22:14;;;;;;;10.70;2.85;;;6.30;99.90;;;;;;5082351;28;20555;-38
2023/01/15 08:24:39;;;;;;;7.95;1.52;;;6.30;99.90;;;;;;5081875;28;20376;-36
2023/01/15 08:27:05;;;;;;;9.82;1.88;;;6.30;99.90;;;;;;5082645;28;20032;-37
2023/01/15 08:29:31;;;;;;;11.15;1.45;;;6.30;99.90;;;;;;5082356;28;20093;-37
2023/01/15 08:31:56;;;;;;;7.43;1.60;;;6.30;99.90;;;;;;5081899;28;20377;-35
2023/01/15 08:34:23;;;;;;;8.32;2.20;;;6.30;99.90;;;;;;5081901;28;20056;-35
2023/01/15 08:36:51;;;;;;;7.32;1.55;;;6.40;99.90;;;;;;5082553;28;20032;-33
2023/01/15 08:39:17;;;;;;;5.10;1.80;;;6.40;99.90;;;;;;5081128;28;20027;-37
2023/01/15 08:41:42;;;;;;;8.90;1.50;;;6.40;99.90;;;;;;5081758;28;20036;-36
2023/01/15 08:44:09;;;;;;;5.28;1.40;;;6.40;99.90;;;;;;5082234;28;20023;-35
2023/01/15 08:46:34;;;;;;;7.03;1.75;;;6.40;99.90;;;;;;5082514;28;20111;-38
2023/01/15 08:49:00;;;;;;;12.18;1.60;;;6.50;99.90;;;;;;5081854;28;20034;-37
2023/01/15 08:51:26;;;;;;;8.85;1.73;;;6.50;99.90;;;;;;5082312;28;20034;-39
2023/01/15 08:53:51;;;;;;;6.68;1.67;;;6.50;99.90;;;;;;5082282;28;20028;-38
2023/01/15 08:56:18;;;;;;;4.90;1.52;;;6.50;99.90;;;;;;5081350;28;20028;-36
2023/01/15 08:58:45;;;;;;;12.57;2.75;;;6.60;99.90;;;;;;5082577;28;20028;-36
2023/01/15 09:01:14;;;;;;;7.10;1.67;;;6.60;99.90;;;;;;5081491;28;20043;-34
2023/01/15 09:03:43;;;;;;;5.68;1.33;;;6.60;99.90;;;;;;5082470;28;20089;-38
2023/01/15 09:06:10;;;;;;;6.88;1.40;;;6.60;99.90;;;;;;5082124;28;20059;-39
2023/01/15 09:08:36;;;;;;;9.02;1.40;;;6.60;99.90;;;;;;5081222;28;20063;-37
2023/01/15 09:11:03;;;;;;;8.07;1.80;;;6.70;99.90;;;;;;5081470;28;20018;-37
2023/01/15 09:13:30;;;;;;;8.68;1.90;;;6.70;99.90;;;;;;5082728;28;20024;-34
2023/01/15 09:15:59;;;;;;;6.05;1.40;;;6.70;99.90;;;;;;5082337;28;20584;-39
2023/01/15 09:18:25;;;;;;;7.72;1.52;;;6.70;99.90;;;;;;5082692;28;20024;-38
2023/01/15 09:20:50;;;;;;;7.57;1.35;;;6.70;99.90;;;;;;5081666;28;20854;-39
2023/01/15 09:23:16;;;;;;;7.05;1.25;;;6.80;99.90;;;;;;5081893;28;20510;-35
2023/01/15 09:25:51;;;;;;;6.68;2.17;;;6.80;99.90;;;;;;5082937;28;20378;-37
2023/01/15 09:28:17;;;;;;;5.32;1.40;;;6.80;99.90;;;;;;5081317;28;20020;-38
2023/01/15 09:30:42;;;;;;;7.90;1.20;;;6.80;99.90;;;;;;5082396;28;20028;-37
2023/01/15 09:33:10;;;;;;;6.22;1.27;;;6.80;99.90;;;;;;5081674;28;20100;-38
2023/01/15 09:35:35;;;;;;;5.53;1.38;;;6.80;99.90;;;;;;5081810;28;20415;-35
2023/01/15 09:38:01;;;;;;;8.13;2.00;;;6.90;99.90;;;;;;5081647;28;20012;-34
2023/01/15 09:40:49;;;;;;;8.02;2.08;;;6.90;99.90;;;;;;5082370;28;20035;-37
2023/01/15 09:43:40;;;;;;;6.70;1.60;;;6.90;99.90;;;;;;5079519;28;20481;-36
2023/01/15 09:46:16;;;;;;;6.28;1.52;;;7.00;99.90;;;;;;5081787;28;20392;-38
2023/01/15 09:49:17;;;;;;;6.50;1.48;;;7.00;99.90;;;;;;5079206;28;20083;-32
2023/01/15 09:52:05;;;;;;;9.55;1.80;;;7.00;99.90;;;;;;5082871;28;20020;-34
2023/01/15 09:54:51;;;;;;;7.50;1.73;;;7.00;99.90;;;;;;5077129;28;20036;-31
2023/01/15 09:57:19;;;;;;;9.30;1.60;;;7.00;99.90;;;;;;5084090;28;20032;-33
2023/01/15 09:59:47;;;;;;;9.55;1.40;;;7.00;99.90;;;;;;5085640;28;20035;-36
2023/01/15 10:02:24;;;;;;;7.55;1.48;;;7.10;99.90;;;;;;5085030;28;20032;-34
2023/01/15 10:04:59;;;;;;;4.10;1.25;;;7.10;99.90;;;;;;5085481;28;20518;-35
2023/01/15 10:07:57;;;;;;;5.88;1.55;;;7.20;99.90;;;;;;5085739;28;20123;-38
2023/01/15 10:10:32;;;;;;;8.07;1.63;;;7.30;99.90;;;;;;5084274;28;20073;-38
2023/01/15 10:13:29;;;;;;;9.60;1.73;;;7.30;99.90;;;;;;5084967;28;20028;-36
2023/01/15 10:15:56;;;;;;;9.02;1.52;;;7.40;99.90;;;;;;5067556;28;20048;-35
2023/01/15 10:18:23;;;;;;;7.30;1.75;;;7.40;99.90;;;;;;5084675;28;20379;-38
2023/01/15 10:21:18;;;;;;;8.88;1.70;;;7.40;99.90;;;;;;5085603;28;20032;-38
2023/01/15 10:24:04;;;;;;;8.00;1.60;;;7.40;99.90;;;;;;5084896;28;20730;-38
2023/01/15 10:26:42;;;;;;;9.40;2.00;;;7.40;99.90;;;;;;5085787;28;20028;-38
2023/01/15 10:29:30;;;;;;;7.85;1.50;;;7.50;99.90;;;;;;5084732;28;20065;-37
2023/01/15 10:32:23;;;;;;;6.93;1.67;;;7.50;99.90;;;;;;5063856;28;20600;-35
2023/01/15 10:35:06;;;;;;;11.20;1.93;;;7.50;99.90;;;;;;5083801;28;20040;-36
2023/01/15 10:37:45;;;;;;;6.25;1.73;;;7.50;99.90;;;;;;5084559;28;20278;-36
2023/01/15 10:40:29;;;;;;;6.85;1.80;;;7.50;99.90;;;;;;5082978;28;20107;-38
2023/01/15 10:43:19;;;;;;;9.30;2.10;;;7.60;99.90;;;;;;5084916;28;20059;-38
2023/01/15 10:45:44;;;;;;;10.10;1.95;;;7.70;99.90;;;;;;5082523;28;20044;-36
2023/01/15 10:48:19;;;;;;;6.55;1.70;;;7.70;99.90;;;;;;5084160;28;20027;-36
2023/01/15 10:50:45;;;;;;;8.05;1.80;;;7.80;99.90;;;;;;5081580;28;20411;-35
2023/01/15 10:53:24;;;;;;;7.22;1.77;;;7.90;99.90;;;;;;5083767;28;20034;-38
2023/01/15 10:55:54;;;;;;;8.35;1.30;;;8.00;99.90;;;;;;5081488;28;20032;-38
2023/01/15 10:58:33;;;;;;;8.98;1.60;;;8.10;99.90;;;;;;5084240;28;20145;-38
2023/01/15 11:01:22;;;;;;;5.13;1.52;;;8.20;99.90;;;;;;5083634;28;20067;-36
2023/01/15 11:03:47;;;;;;;5.32;1.60;;;8.20;99.90;;;;;;5084089;28;20028;-38
2023/01/15 11:06:16;;;;;;;6.35;1.70;;;8.20;99.90;;;;;;5083115;28;20024;-35
2023/01/15 11:09:04;;;;;;;7.43;1.50;;;8.30;99.90;;;;;;5084759;28;20024;-38
2023/01/15 11:20:17;;;;;;;7.50;1.63;;;8.40;99.90;;;;;;5083276;28;20113;-40
2023/01/15 11:22:43;;;;;;;5.10;1.50;;;8.40;99.90;;;;;;5083752;28;20120;-37
2023/01/15 11:25:09;;;;;;;10.48;1.77;;;8.50;99.90;;;;;;5083731;28;20425;-40
2023/01/15 11:27:36;;;;;;;9.07;1.70;;;8.50;99.90;;;;;;5083777;28;20028;-37
2023/01/15 11:30:04;;;;;;;10.45;1.92;;;8.50;99.90;;;;;;5083270;28;20016;-38
2023/01/15 11:32:35;;;;;;;7.38;1.95;;;8.50;99.90;;;;;;5072687;28;20073;-37
2023/01/15 11:35:03;;;;;;;5.20;1.50;;;8.50;99.90;;;;;;5081946;28;20028;-34
2023/01/15 11:37:29;;;;;;;6.20;1.50;;;8.50;99.90;;;;;;5084021;28;20085;-35
2023/01/15 11:40:03;;;;;;;7.70;1.88;;;8.60;99.90;;;;;;5083818;28;20182;-38
2023/01/15 11:50:53;;;;;;;7.45;1.58;;;8.50;99.90;;;;;;5083478;28;20556;-36
2023/01/15 11:53:25;;;;;;;7.82;1.58;;;8.50;99.90;;;;;;5082810;28;20040;-35
2023/01/15 11:56:01;;;;;;;5.95;1.83;;;8.40;99.90;;;;;;5082003;28;20125;-38
2023/01/15 11:58:31;;;;;;;5.45;1.30;;;8.40;99.90;;;;;;5072963;28;20024;-32
2023/01/15 12:00:58;;;;;;;5.00;1.45;;;8.40;99.90;;;;;;5082702;28;20032;-38
2023/01/15 12:03:29;;;;;;;6.07;1.30;;;8.20;99.90;;;;;;5082868;28;20051;-36
2023/01/15 12:06:04;;;;;;;6.55;1.33;;;8.10;99.90;;;;;;5083567;28;20034;-34
2023/01/15 12:08:49;;;;;;;9.48;1.70;;;8.10;99.90;;;;;;5083826;28;20032;-35
2023/01/15 12:11:33;;;;;;;10.10;2.00;;;8.00;99.90;;;;;;5081694;28;20062;-38
2023/01/15 12:14:37;;;;;;;8.98;1.88;;;8.00;99.90;;;;;;5072767;28;20032;-36
2023/01/15 12:17:27;;;;;;;5.75;1.20;;;8.00;99.90;;;;;;5081664;28;20040;-38
2023/01/15 12:20:07;;;;;;;11.43;2.00;;;8.00;99.90;;;;;;5083520;28;20082;-38
2023/01/15 12:23:21;;;;;;;5.65;1.40;;;8.00;99.90;;;;;;5082822;28;20075;-36
2023/01/15 12:26:02;;;;;;;4.78;1.20;;;8.20;99.90;;;;;;5062449;28;20035;-39
2023/01/15 12:28:44;;;;;;;5.15;1.42;;;8.20;99.90;;;;;;5081040;28;20059;-37
2023/01/15 12:31:15;;;;;;;6.13;1.27;;;8.30;99.90;;;;;;5081699;28;20016;-38
2023/01/15 12:33:47;;;;;;;4.43;1.40;;;8.30;99.90;;;;;;5081824;28;20097;-33
2023/01/15 12:36:32;;;;;;;5.20;1.50;;;8.30;99.90;;;;;;5083823;28;20052;-39
2023/01/15 12:39:23;;;;;;;6.60;1.63;;;8.30;99.90;;;;;;5079511;28;20507;-40
2023/01/15 12:45:04;;;;;;;5.53;1.27;;;8.10;99.90;;;;;;5081955;28;20051;-40
2023/01/15 12:47:44;;;;;;;5.50;1.48;;;7.90;99.90;;;;;;5082111;28;20113;-40
2023/01/15 12:50:35;;;;;;;6.05;1.20;;;7.80;99.90;;;;;;5074932;28;20536;-38
2023/01/15 12:53:35;;;;;;;5.18;1.33;;;7.70;99.90;;;;;;5079931;28;20035;-40
2023/01/15 12:56:18;;;;;;;5.63;2.03;;;7.80;99.90;;;;;;5080257;28;20479;-37
2023/01/15 12:58:53;;;;;;;6.40;1.25;;;7.70;99.90;;;;;;5081133;28;20028;-40
2023/01/15 13:01:30;;;;;;;4.22;1.33;;;7.60;99.90;;;;;;5080672;28;20032;-39
2023/01/15 13:04:17;;;;;;;5.00;1.33;;;7.60;99.90;;;;;;5080749;28;20498;-39
2023/01/15 13:06:50;;;;;;;5.43;1.40;;;7.60;99.90;;;;;;5080854;28;20024;-40
2023/01/15 13:09:20;;;;;;;4.63;1.13;;;7.60;99.90;;;;;;5080546;28;20019;-40
2023/01/15 13:11:46;;;;;;;8.48;1.50;;;7.70;99.90;;;;;;5081160;28;20102;-40
2023/01/15 13:14:15;;;;;;;5.53;1.40;;;7.70;99.90;;;;;;5079794;28;20089;-37
2023/01/15 13:16:45;;;;;;;4.60;1.10;;;7.80;99.90;;;;;;5081602;28;20024;-40
2023/01/15 13:19:33;;;;;;;6.95;1.60;;;7.80;99.90;;;;;;5080992;28;20039;-38
2023/01/15 13:22:06;;;;;;;6.25;1.67;;;7.90;99.90;;;;;;5080305;28;20140;-39
2023/01/15 13:24:34;;;;;;;2.95;1.05;;;7.90;99.90;;;;;;5081244;28;20027;-41
2023/01/15 13:27:19;;;;;;;6.78;1.85;;;7.90;99.90;;;;;;5082547;28;20032;-40
2023/01/15 13:29:45;;;;;;;6.25;1.63;;;8.00;99.90;;;;;;5085896;28;20024;-39
2023/01/15 13:32:16;;;;;;;9.32;1.90;;;8.00;99.90;;;;;;5085332;28;20027;-39
2023/01/15 13:34:53;;;;;;;4.03;1.60;;;8.00;99.90;;;;;;5084863;28;20071;-39
2023/01/15 13:37:30;;;;;;;6.07;1.70;;;7.90;99.90;;;;;;5085368;28;20012;-39
2023/01/15 13:40:15;;;;;;;6.22;1.80;;;7.90;99.90;;;;;;5085081;28;20028;-41
2023/01/15 13:42:46;;;;;;;5.35;1.65;;;7.90;99.90;;;;;;5085109;28;20185;-38
2023/01/15 13:45:31;;;;;;;7.38;1.52;;;8.00;99.90;;;;;;5084386;28;20020;-39
2023/01/15 13:48:07;;;;;;;6.57;1.65;;;8.00;99.90;;;;;;5084215;28;20084;-40
2023/01/15 13:50:39;;;;;;;6.93;1.65;;;8.00;99.90;;;;;;5086092;28;20024;-40
2023/01/15 13:53:22;;;;;;;9.65;1.92;;;8.00;99.90;;;;;;5085568;28;20035;-38
2023/01/15 13:55:54;;;;;;;6.93;1.70;;;7.90;99.90;;;;;;5084893;28;20451;-37
2023/01/15 13:58:28;;;;;;;5.55;1.60;;;7.90;99.90;;;;;;5085347;28;20552;-40
2023/01/15 14:01:29;;;;;;;7.30;2.33;;;7.90;99.90;;;;;;5085703;28;20030;-38
2023/01/15 14:03:59;;;;;;;5.07;2.30;;;7.90;99.90;;;;;;5064401;28;20107;-39